sensor_id;sensor_type;location;lat;lon;timestamp;temperature;humidity
3007;DHT22;1513;47.650;10.720;2022-12-29T00:01:36;4.90;99.90
3007;DHT22;1513;47.650;10.720;2022-12-29T00:04:03;4.90;99.90
3007;DHT22;1513;47.650;10.720;2022-12-29T00:06:30;4.90;99.90
3007;DHT22;1513;47.650;10.720;2022-12-29T00:08:56;5.00;99.40
3007;DHT22;1513;47.650;10.720;2022-12-29T00:11:24;5.20;99.40
3007;DHT22;1513;47.650;10.720;2022-12-29T00:13:51;5.00;99.50
3007;DHT22;1513;47.650;10.720;2022-12-29T00:16:36;5.00;99.50
3007;DHT22;1513;47.650;10.720;2022-12-29T00:19:04;4.70;99.90
3007;DHT22;1513;47.650;10.720;2022-12-29T00:21:30;4.60;99.90
3007;DHT22;1513;47.650;10.720;2022-12-29T00:24:19;4.50;99.90
3007;DHT22;1513;47.650;10.720;2022-12-29T00:29:53;4.40;99.90
3007;DHT22;1513;47.650;10.720;2022-12-29T00:32:37;4.30;99.90
3007;DHT22;1513;47.650;10.720;2022-12-29T00:35:23;4.20;99.90
3007;DHT22;1513;47.650;10.720;2022-12-29T00:37:52;4.30;99.90
3007;DHT22;1513;47.650;10.720;2022-12-29T00:40:38;4.50;99.90
3007;DHT22;1513;47.650;10.720;2022-12-29T00:43:23;4.30;99.90
3007;DHT22;1513;47.650;10.720;2022-12-29T00:46:08;4.40;99.90
3007;DHT22;1513;47.650;10.720;2022-12-29T00:48:33;4.30;99.90
3007;DHT22;1513;47.650;10.720;2022-12-29T00:51:18;4.40;99.90
3007;DHT22;1513;47.650;10.720;2022-12-29T00:53:43;4.50;99.90
3007;DHT22;1513;47.650;10.720;2022-12-29T00:56:09;4.40;99.90
3007;DHT22;1513;47.650;10.720;2022-12-29T00:58:35;4.20;99.90
3007;DHT22;1513;47.650;10.720;2022-12-29T01:01:08;4.20;99.90
3007;DHT22;1513;47.650;10.720;2022-12-29T01:03:36;4.30;99.90
3007;DHT22;1513;47.650;10.720;2022-12-29T01:06:03;4.60;99.90
3007;DHT22;1513;47.650;10.720;2022-12-29T01:08:31;4.50;99.90
3007;DHT22;1513;47.650;10.720;2022-12-29T01:10:58;4.20;99.90
3007;DHT22;1513;47.650;10.720;2022-12-29T01:13:26;4.20;99.90
3007;DHT22;1513;47.650;10.720;2022-12-29T01:15:54;4.40;99.90
3007;DHT22;1513;47.650;10.720;2022-12-29T01:18:21;4.40;99.90
3007;DHT22;1513;47.650;10.720;2022-12-29T01:20:47;4.50;99.90
3007;DHT22;1513;47.650;10.720;2022-12-29T01:23:13;4.30;99.90
3007;DHT22;1513;47.650;10.720;2022-12-29T01:25:39;4.30;99.90
3007;DHT22;1513;47.650;10.720;2022-12-29T01:28:05;4.60;99.90
3007;DHT22;1513;47.650;10.720;2022-12-29T01:30:36;4.70;99.10
3007;DHT22;1513;47.650;10.720;2022-12-29T01:33:02;4.90;98.80
3007;DHT22;1513;47.650;10.720;2022-12-29T01:35:28;4.80;98.60
3007;DHT22;1513;47.650;10.720;2022-12-29T01:37:57;4.90;98.40
3007;DHT22;1513;47.650;10.720;2022-12-29T01:40:23;4.90;98.90
3007;DHT22;1513;47.650;10.720;2022-12-29T01:42:49;4.90;98.20
3007;DHT22;1513;47.650;10.720;2022-12-29T01:45:17;4.90;98.60
3007;DHT22;1513;47.650;10.720;2022-12-29T01:47:57;4.90;98.70
3007;DHT22;1513;47.650;10.720;2022-12-29T01:53:11;5.00;98.80
3007;DHT22;1513;47.650;10.720;2022-12-29T01:55:50;5.20;97.80
3007;DHT22;1513;47.650;10.720;2022-12-29T01:58:20;5.20;98.10
3007;DHT22;1513;47.650;10.720;2022-12-29T02:00:48;5.60;97.00
3007;DHT22;1513;47.650;10.720;2022-12-29T02:03:15;5.40;97.40
3007;DHT22;1513;47.650;10.720;2022-12-29T02:05:58;5.60;97.10
3007;DHT22;1513;47.650;10.720;2022-12-29T02:08:29;5.50;97.00
3007;DHT22;1513;47.650;10.720;2022-12-29T02:10:56;5.50;96.80
3007;DHT22;1513;47.650;10.720;2022-12-29T02:13:25;5.40;97.00
3007;DHT22;1513;47.650;10.720;2022-12-29T02:28:44;5.30;97.30
3007;DHT22;1513;47.650;10.720;2022-12-29T02:34:47;5.20;97.80
3007;DHT22;1513;47.650;10.720;2022-12-29T02:43:56;5.00;98.30
3007;DHT22;1513;47.650;10.720;2022-12-29T02:46:37;4.90;98.40
3007;DHT22;1513;47.650;10.720;2022-12-29T02:49:15;4.70;98.60
3007;DHT22;1513;47.650;10.720;2022-12-29T02:51:54;4.70;98.80
3007;DHT22;1513;47.650;10.720;2022-12-29T02:54:24;4.80;98.40
3007;DHT22;1513;47.650;10.720;2022-12-29T02:57:33;4.80;98.20
3007;DHT22;1513;47.650;10.720;2022-12-29T03:16:44;4.80;98.50
3007;DHT22;1513;47.650;10.720;2022-12-29T03:19:18;4.80;98.40
3007;DHT22;1513;47.650;10.720;2022-12-29T03:22:06;5.00;97.50
3007;DHT22;1513;47.650;10.720;2022-12-29T03:25:04;5.00;97.50
3007;DHT22;1513;47.650;10.720;2022-12-29T03:27:39;5.10;97.20
3007;DHT22;1513;47.650;10.720;2022-12-29T03:30:07;5.30;96.90
3007;DHT22;1513;47.650;10.720;2022-12-29T03:32:44;5.30;96.50
3007;DHT22;1513;47.650;10.720;2022-12-29T03:35:15;5.40;96.80
3007;DHT22;1513;47.650;10.720;2022-12-29T03:40:44;5.10;97.90
3007;DHT22;1513;47.650;10.720;2022-12-29T03:43:13;5.00;98.00
3007;DHT22;1513;47.650;10.720;2022-12-29T03:45:39;5.00;97.80
3007;DHT22;1513;47.650;10.720;2022-12-29T03:48:05;5.00;97.80
3007;DHT22;1513;47.650;10.720;2022-12-29T03:50:31;5.10;97.70
3007;DHT22;1513;47.650;10.720;2022-12-29T03:52:57;5.00;97.90
3007;DHT22;1513;47.650;10.720;2022-12-29T03:55:25;5.00;98.10
3007;DHT22;1513;47.650;10.720;2022-12-29T03:57:52;5.10;97.10
3007;DHT22;1513;47.650;10.720;2022-12-29T04:00:26;5.20;96.90
3007;DHT22;1513;47.650;10.720;2022-12-29T04:02:51;5.10;97.30
3007;DHT22;1513;47.650;10.720;2022-12-29T04:05:20;5.10;97.30
3007;DHT22;1513;47.650;10.720;2022-12-29T04:07:47;5.10;97.30
3007;DHT22;1513;47.650;10.720;2022-12-29T04:10:14;5.30;96.80
3007;DHT22;1513;47.650;10.720;2022-12-29T04:12:40;5.20;97.20
3007;DHT22;1513;47.650;10.720;2022-12-29T04:15:08;5.10;96.70
3007;DHT22;1513;47.650;10.720;2022-12-29T04:17:35;5.10;96.90
3007;DHT22;1513;47.650;10.720;2022-12-29T04:20:02;4.80;97.70
3007;DHT22;1513;47.650;10.720;2022-12-29T04:22:47;4.90;97.30
3007;DHT22;1513;47.650;10.720;2022-12-29T04:25:12;4.70;98.20
3007;DHT22;1513;47.650;10.720;2022-12-29T04:27:39;4.60;98.30
3007;DHT22;1513;47.650;10.720;2022-12-29T04:30:27;4.70;98.00
3007;DHT22;1513;47.650;10.720;2022-12-29T04:33:03;4.60;98.30
3007;DHT22;1513;47.650;10.720;2022-12-29T04:35:29;4.70;98.20
3007;DHT22;1513;47.650;10.720;2022-12-29T04:37:55;4.90;97.20
3007;DHT22;1513;47.650;10.720;2022-12-29T04:40:21;4.90;96.90
3007;DHT22;1513;47.650;10.720;2022-12-29T04:42:49;5.00;96.80
3007;DHT22;1513;47.650;10.720;2022-12-29T04:45:17;5.20;96.10
3007;DHT22;1513;47.650;10.720;2022-12-29T04:47:53;5.10;96.20
3007;DHT22;1513;47.650;10.720;2022-12-29T04:50:38;5.00;96.50
3007;DHT22;1513;47.650;10.720;2022-12-29T04:53:17;5.00;96.20
3007;DHT22;1513;47.650;10.720;2022-12-29T04:55:44;5.30;95.70
3007;DHT22;1513;47.650;10.720;2022-12-29T04:58:13;5.20;96.10
3007;DHT22;1513;47.650;10.720;2022-12-29T05:00:39;5.10;95.70
3007;DHT22;1513;47.650;10.720;2022-12-29T05:03:05;5.20;95.20
3007;DHT22;1513;47.650;10.720;2022-12-29T05:05:31;5.20;95.80
3007;DHT22;1513;47.650;10.720;2022-12-29T05:07:58;5.10;95.60
3007;DHT22;1513;47.650;10.720;2022-12-29T05:10:24;5.20;95.60
3007;DHT22;1513;47.650;10.720;2022-12-29T05:12:52;5.10;95.50
3007;DHT22;1513;47.650;10.720;2022-12-29T05:15:18;5.10;96.00
3007;DHT22;1513;47.650;10.720;2022-12-29T05:17:44;5.20;95.50
3007;DHT22;1513;47.650;10.720;2022-12-29T05:20:11;5.20;95.70
3007;DHT22;1513;47.650;10.720;2022-12-29T05:22:37;5.20;96.10
3007;DHT22;1513;47.650;10.720;2022-12-29T05:25:05;5.20;95.70
3007;DHT22;1513;47.650;10.720;2022-12-29T05:27:36;5.10;95.90
3007;DHT22;1513;47.650;10.720;2022-12-29T05:30:17;5.20;95.60
3007;DHT22;1513;47.650;10.720;2022-12-29T05:32:43;5.10;95.50
3007;DHT22;1513;47.650;10.720;2022-12-29T05:35:09;5.10;95.60
3007;DHT22;1513;47.650;10.720;2022-12-29T05:37:35;5.20;95.20
3007;DHT22;1513;47.650;10.720;2022-12-29T05:40:01;5.20;95.40
3007;DHT22;1513;47.650;10.720;2022-12-29T05:42:28;5.10;95.40
3007;DHT22;1513;47.650;10.720;2022-12-29T05:45:12;5.10;95.20
3007;DHT22;1513;47.650;10.720;2022-12-29T05:47:52;5.00;95.50
3007;DHT22;1513;47.650;10.720;2022-12-29T05:50:36;4.90;95.60
3007;DHT22;1513;47.650;10.720;2022-12-29T05:53:11;5.10;95.00
3007;DHT22;1513;47.650;10.720;2022-12-29T05:55:38;5.10;94.60
3007;DHT22;1513;47.650;10.720;2022-12-29T05:58:04;5.10;95.00
3007;DHT22;1513;47.650;10.720;2022-12-29T06:00:30;5.10;95.10
3007;DHT22;1513;47.650;10.720;2022-12-29T06:02:56;4.90;94.90
3007;DHT22;1513;47.650;10.720;2022-12-29T06:05:22;5.00;95.10
3007;DHT22;1513;47.650;10.720;2022-12-29T06:07:48;5.10;94.40
3007;DHT22;1513;47.650;10.720;2022-12-29T06:10:16;5.00;95.00
3007;DHT22;1513;47.650;10.720;2022-12-29T06:12:46;5.00;94.60
3007;DHT22;1513;47.650;10.720;2022-12-29T06:15:13;5.00;94.60
3007;DHT22;1513;47.650;10.720;2022-12-29T06:17:41;5.10;94.30
3007;DHT22;1513;47.650;10.720;2022-12-29T06:20:08;5.10;94.50
3007;DHT22;1513;47.650;10.720;2022-12-29T06:22:35;5.00;94.40
3007;DHT22;1513;47.650;10.720;2022-12-29T06:25:01;5.10;94.50
3007;DHT22;1513;47.650;10.720;2022-12-29T06:27:28;5.30;93.80
3007;DHT22;1513;47.650;10.720;2022-12-29T06:29:54;5.10;94.10
3007;DHT22;1513;47.650;10.720;2022-12-29T06:32:20;5.30;93.30
3007;DHT22;1513;47.650;10.720;2022-12-29T06:34:50;5.20;93.20
3007;DHT22;1513;47.650;10.720;2022-12-29T06:37:16;5.30;92.80
3007;DHT22;1513;47.650;10.720;2022-12-29T06:39:42;5.40;92.10
3007;DHT22;1513;47.650;10.720;2022-12-29T06:42:10;5.40;92.10
3007;DHT22;1513;47.650;10.720;2022-12-29T06:44:44;5.40;92.00
3007;DHT22;1513;47.650;10.720;2022-12-29T06:47:10;5.30;92.00
3007;DHT22;1513;47.650;10.720;2022-12-29T06:49:36;5.40;91.30
3007;DHT22;1513;47.650;10.720;2022-12-29T06:52:02;5.60;91.10
3007;DHT22;1513;47.650;10.720;2022-12-29T06:54:30;5.60;91.20
3007;DHT22;1513;47.650;10.720;2022-12-29T06:56:56;5.40;91.50
3007;DHT22;1513;47.650;10.720;2022-12-29T06:59:23;5.70;91.20
3007;DHT22;1513;47.650;10.720;2022-12-29T07:01:50;5.60;90.90
3007;DHT22;1513;47.650;10.720;2022-12-29T07:04:16;5.50;91.00
3007;DHT22;1513;47.650;10.720;2022-12-29T07:06:42;5.60;91.30
3007;DHT22;1513;47.650;10.720;2022-12-29T07:09:08;5.80;90.50
3007;DHT22;1513;47.650;10.720;2022-12-29T07:11:34;5.80;90.80
3007;DHT22;1513;47.650;10.720;2022-12-29T07:14:00;5.60;90.80
3007;DHT22;1513;47.650;10.720;2022-12-29T07:16:26;5.50;91.00
3007;DHT22;1513;47.650;10.720;2022-12-29T07:18:55;5.70;90.60
3007;DHT22;1513;47.650;10.720;2022-12-29T07:21:21;5.70;90.20
3007;DHT22;1513;47.650;10.720;2022-12-29T07:23:47;5.70;90.50
3007;DHT22;1513;47.650;10.720;2022-12-29T07:26:14;5.90;90.10
3007;DHT22;1513;47.650;10.720;2022-12-29T07:28:40;5.70;90.30
3007;DHT22;1513;47.650;10.720;2022-12-29T07:31:22;5.40;91.80
3007;DHT22;1513;47.650;10.720;2022-12-29T07:33:49;5.00;93.20
3007;DHT22;1513;47.650;10.720;2022-12-29T07:36:16;4.80;93.80
3007;DHT22;1513;47.650;10.720;2022-12-29T07:38:42;4.70;94.20
3007;DHT22;1513;47.650;10.720;2022-12-29T07:41:08;4.50;95.10
3007;DHT22;1513;47.650;10.720;2022-12-29T07:43:34;4.40;95.70
3007;DHT22;1513;47.650;10.720;2022-12-29T07:46:32;4.30;99.90
3007;DHT22;1513;47.650;10.720;2022-12-29T07:48:58;4.10;99.90
3007;DHT22;1513;47.650;10.720;2022-12-29T07:51:24;4.00;99.90
3007;DHT22;1513;47.650;10.720;2022-12-29T07:53:50;3.80;99.90
3007;DHT22;1513;47.650;10.720;2022-12-29T07:56:15;3.70;99.90
3007;DHT22;1513;47.650;10.720;2022-12-29T07:58:41;3.70;99.90
3007;DHT22;1513;47.650;10.720;2022-12-29T08:01:08;3.70;99.90
3007;DHT22;1513;47.650;10.720;2022-12-29T08:03:33;3.80;99.90
3007;DHT22;1513;47.650;10.720;2022-12-29T08:05:59;3.90;99.90
3007;DHT22;1513;47.650;10.720;2022-12-29T08:08:25;3.80;99.90
3007;DHT22;1513;47.650;10.720;2022-12-29T08:10:51;3.80;99.90
3007;DHT22;1513;47.650;10.720;2022-12-29T08:13:16;3.90;99.90
3007;DHT22;1513;47.650;10.720;2022-12-29T08:15:42;4.20;99.90
3007;DHT22;1513;47.650;10.720;2022-12-29T08:18:08;4.50;99.90
3007;DHT22;1513;47.650;10.720;2022-12-29T08:20:34;4.70;99.90
3007;DHT22;1513;47.650;10.720;2022-12-29T08:23:00;4.70;99.90
3007;DHT22;1513;47.650;10.720;2022-12-29T08:25:26;4.70;99.90
3007;DHT22;1513;47.650;10.720;2022-12-29T08:27:52;4.70;99.90
3007;DHT22;1513;47.650;10.720;2022-12-29T08:30:17;4.70;99.90
3007;DHT22;1513;47.650;10.720;2022-12-29T08:32:43;4.90;99.90
3007;DHT22;1513;47.650;10.720;2022-12-29T08:35:09;5.10;99.90
3007;DHT22;1513;47.650;10.720;2022-12-29T08:37:35;5.20;99.90
3007;DHT22;1513;47.650;10.720;2022-12-29T08:40:01;5.30;99.90
3007;DHT22;1513;47.650;10.720;2022-12-29T08:42:30;5.60;99.80
3007;DHT22;1513;47.650;10.720;2022-12-29T08:44:58;6.00;98.00
3007;DHT22;1513;47.650;10.720;2022-12-29T08:47:24;6.20;97.20
3007;DHT22;1513;47.650;10.720;2022-12-29T08:49:50;6.50;95.90
3007;DHT22;1513;47.650;10.720;2022-12-29T08:52:17;6.50;95.10
3007;DHT22;1513;47.650;10.720;2022-12-29T08:54:43;6.50;95.10
3007;DHT22;1513;47.650;10.720;2022-12-29T08:57:10;6.60;94.70
3007;DHT22;1513;47.650;10.720;2022-12-29T08:59:45;6.50;97.40
3007;DHT22;1513;47.650;10.720;2022-12-29T09:02:12;6.00;99.90
3007;DHT22;1513;47.650;10.720;2022-12-29T09:04:38;6.00;99.90
3007;DHT22;1513;47.650;10.720;2022-12-29T09:07:04;6.10;99.90
3007;DHT22;1513;47.650;10.720;2022-12-29T09:09:31;6.20;99.90
3007;DHT22;1513;47.650;10.720;2022-12-29T09:11:57;6.40;98.80
3007;DHT22;1513;47.650;10.720;2022-12-29T09:14:23;6.70;97.70
3007;DHT22;1513;47.650;10.720;2022-12-29T09:16:51;6.70;99.10
3007;DHT22;1513;47.650;10.720;2022-12-29T09:19:36;6.90;99.90
3007;DHT22;1513;47.650;10.720;2022-12-29T09:22:02;6.90;99.10
3007;DHT22;1513;47.650;10.720;2022-12-29T09:24:28;7.00;99.20
3007;DHT22;1513;47.650;10.720;2022-12-29T09:26:54;7.00;99.90
3007;DHT22;1513;47.650;10.720;2022-12-29T09:29:20;7.00;99.90
3007;DHT22;1513;47.650;10.720;2022-12-29T09:31:46;7.20;96.00
3007;DHT22;1513;47.650;10.720;2022-12-29T09:34:11;7.30;95.40
3007;DHT22;1513;47.650;10.720;2022-12-29T09:36:37;7.30;93.90
3007;DHT22;1513;47.650;10.720;2022-12-29T09:39:03;7.30;93.50
3007;DHT22;1513;47.650;10.720;2022-12-29T09:41:49;7.30;93.30
3007;DHT22;1513;47.650;10.720;2022-12-29T09:47:42;7.10;93.20
3007;DHT22;1513;47.650;10.720;2022-12-29T09:53:01;7.00;93.60
3007;DHT22;1513;47.650;10.720;2022-12-29T09:55:41;7.20;92.70
3007;DHT22;1513;47.650;10.720;2022-12-29T09:58:24;7.30;92.50
3007;DHT22;1513;47.650;10.720;2022-12-29T10:01:06;7.40;92.30
3007;DHT22;1513;47.650;10.720;2022-12-29T10:03:48;7.40;92.60
3007;DHT22;1513;47.650;10.720;2022-12-29T10:06:19;7.50;92.30
3007;DHT22;1513;47.650;10.720;2022-12-29T10:09:00;7.40;92.20
3007;DHT22;1513;47.650;10.720;2022-12-29T10:12:14;7.40;92.30
3007;DHT22;1513;47.650;10.720;2022-12-29T10:18:26;7.40;93.00
3007;DHT22;1513;47.650;10.720;2022-12-29T10:21:08;7.40;92.40
3007;DHT22;1513;47.650;10.720;2022-12-29T10:23:45;7.40;92.20
3007;DHT22;1513;47.650;10.720;2022-12-29T10:26:18;7.40;91.90
3007;DHT22;1513;47.650;10.720;2022-12-29T10:28:53;7.40;92.50
3007;DHT22;1513;47.650;10.720;2022-12-29T10:31:24;7.50;91.80
3007;DHT22;1513;47.650;10.720;2022-12-29T10:33:58;7.60;92.40
3007;DHT22;1513;47.650;10.720;2022-12-29T10:36:38;7.60;91.90
3007;DHT22;1513;47.650;10.720;2022-12-29T10:39:28;7.80;91.30
3007;DHT22;1513;47.650;10.720;2022-12-29T10:42:11;7.80;91.80
3007;DHT22;1513;47.650;10.720;2022-12-29T10:44:41;7.90;91.00
3007;DHT22;1513;47.650;10.720;2022-12-29T10:47:14;8.10;89.40
3007;DHT22;1513;47.650;10.720;2022-12-29T10:49:43;8.20;90.20
3007;DHT22;1513;47.650;10.720;2022-12-29T10:52:11;8.30;90.40
3007;DHT22;1513;47.650;10.720;2022-12-29T10:54:46;8.40;87.60
3007;DHT22;1513;47.650;10.720;2022-12-29T10:59:58;8.60;88.00
3007;DHT22;1513;47.650;10.720;2022-12-29T11:08:11;8.80;88.30
3007;DHT22;1513;47.650;10.720;2022-12-29T11:10:41;8.80;87.90
3007;DHT22;1513;47.650;10.720;2022-12-29T11:13:29;8.80;88.40
3007;DHT22;1513;47.650;10.720;2022-12-29T11:15:56;8.80;89.40
3007;DHT22;1513;47.650;10.720;2022-12-29T11:18:32;8.80;89.10
3007;DHT22;1513;47.650;10.720;2022-12-29T11:21:04;8.80;89.20
3007;DHT22;1513;47.650;10.720;2022-12-29T11:23:37;8.70;89.50
3007;DHT22;1513;47.650;10.720;2022-12-29T11:28:39;8.80;90.10
3007;DHT22;1513;47.650;10.720;2022-12-29T11:31:08;8.70;90.40
3007;DHT22;1513;47.650;10.720;2022-12-29T11:33:39;8.80;90.90
3007;DHT22;1513;47.650;10.720;2022-12-29T11:36:16;8.70;90.00
3007;DHT22;1513;47.650;10.720;2022-12-29T11:38:51;8.70;90.80
3007;DHT22;1513;47.650;10.720;2022-12-29T11:41:22;8.70;90.40
3007;DHT22;1513;47.650;10.720;2022-12-29T11:43:50;8.60;89.90
3007;DHT22;1513;47.650;10.720;2022-12-29T11:46:22;8.60;91.30
3007;DHT22;1513;47.650;10.720;2022-12-29T11:48:51;8.60;91.20
3007;DHT22;1513;47.650;10.720;2022-12-29T11:51:28;8.60;90.70
3007;DHT22;1513;47.650;10.720;2022-12-29T11:54:00;8.70;90.30
3007;DHT22;1513;47.650;10.720;2022-12-29T11:56:37;9.00;90.00
3007;DHT22;1513;47.650;10.720;2022-12-29T12:00:14;9.00;89.90
3007;DHT22;1513;47.650;10.720;2022-12-29T12:02:36;9.10;90.00
3007;DHT22;1513;47.650;10.720;2022-12-29T12:08:07;9.30;88.50
3007;DHT22;1513;47.650;10.720;2022-12-29T12:10:46;9.30;88.80
3007;DHT22;1513;47.650;10.720;2022-12-29T12:13:25;9.40;89.10
3007;DHT22;1513;47.650;10.720;2022-12-29T12:19:48;9.70;88.50
3007;DHT22;1513;47.650;10.720;2022-12-29T12:22:34;9.70;89.10
3007;DHT22;1513;47.650;10.720;2022-12-29T12:30:31;10.10;90.20
3007;DHT22;1513;47.650;10.720;2022-12-29T12:56:47;11.20;85.90
3007;DHT22;1513;47.650;10.720;2022-12-29T12:59:38;11.10;87.30
3007;DHT22;1513;47.650;10.720;2022-12-29T13:11:12;11.00;91.50
3007;DHT22;1513;47.650;10.720;2022-12-29T13:16:36;10.80;92.00
3007;DHT22;1513;47.650;10.720;2022-12-29T13:22:37;10.90;92.20
3007;DHT22;1513;47.650;10.720;2022-12-29T13:34:26;11.10;91.50
3007;DHT22;1513;47.650;10.720;2022-12-29T13:37:03;10.90;93.20
3007;DHT22;1513;47.650;10.720;2022-12-29T13:39:42;10.60;94.30
3007;DHT22;1513;47.650;10.720;2022-12-29T13:42:11;10.40;95.50
3007;DHT22;1513;47.650;10.720;2022-12-29T13:50:01;10.30;95.30
3007;DHT22;1513;47.650;10.720;2022-12-29T13:55:37;10.50;93.80
3007;DHT22;1513;47.650;10.720;2022-12-29T14:03:58;10.00;95.20
3007;DHT22;1513;47.650;10.720;2022-12-29T14:06:27;9.90;96.60
3007;DHT22;1513;47.650;10.720;2022-12-29T14:09:00;9.70;95.90
3007;DHT22;1513;47.650;10.720;2022-12-29T14:11:32;9.70;94.90
3007;DHT22;1513;47.650;10.720;2022-12-29T14:14:09;9.60;95.30
3007;DHT22;1513;47.650;10.720;2022-12-29T14:16:37;9.60;94.80
3007;DHT22;1513;47.650;10.720;2022-12-29T14:19:15;9.30;96.50
3007;DHT22;1513;47.650;10.720;2022-12-29T14:21:57;9.30;95.60
3007;DHT22;1513;47.650;10.720;2022-12-29T14:34:57;8.80;95.80
3007;DHT22;1513;47.650;10.720;2022-12-29T14:37:30;8.60;96.00
3007;DHT22;1513;47.650;10.720;2022-12-29T14:42:48;8.50;96.60
3007;DHT22;1513;47.650;10.720;2022-12-29T14:47:51;8.70;95.40
3007;DHT22;1513;47.650;10.720;2022-12-29T14:50:20;8.70;96.20
3007;DHT22;1513;47.650;10.720;2022-12-29T14:52:56;8.60;97.00
3007;DHT22;1513;47.650;10.720;2022-12-29T14:55:41;8.30;99.00
3007;DHT22;1513;47.650;10.720;2022-12-29T14:58:22;8.00;99.90
3007;DHT22;1513;47.650;10.720;2022-12-29T15:00:58;7.80;99.90
3007;DHT22;1513;47.650;10.720;2022-12-29T15:03:45;7.70;99.90
3007;DHT22;1513;47.650;10.720;2022-12-29T15:06:13;7.60;99.90
3007;DHT22;1513;47.650;10.720;2022-12-29T15:11:52;7.50;99.90
3007;DHT22;1513;47.650;10.720;2022-12-29T15:14:36;7.30;99.90
3007;DHT22;1513;47.650;10.720;2022-12-29T15:19:56;6.80;99.90
3007;DHT22;1513;47.650;10.720;2022-12-29T15:22:23;6.70;99.90
3007;DHT22;1513;47.650;10.720;2022-12-29T15:24:51;6.80;99.90
3007;DHT22;1513;47.650;10.720;2022-12-29T15:27:24;6.70;99.90
3007;DHT22;1513;47.650;10.720;2022-12-29T15:30:02;6.70;99.90
3007;DHT22;1513;47.650;10.720;2022-12-29T15:32:40;6.70;99.90
3007;DHT22;1513;47.650;10.720;2022-12-29T15:37:51;6.70;99.90
3007;DHT22;1513;47.650;10.720;2022-12-29T15:40:29;6.70;99.90
3007;DHT22;1513;47.650;10.720;2022-12-29T15:43:11;6.70;99.90
3007;DHT22;1513;47.650;10.720;2022-12-29T15:45:45;6.80;99.90
3007;DHT22;1513;47.650;10.720;2022-12-29T15:48:17;7.00;99.90
3007;DHT22;1513;47.650;10.720;2022-12-29T15:50:45;6.90;99.90
3007;DHT22;1513;47.650;10.720;2022-12-29T15:53:22;6.90;99.90
3007;DHT22;1513;47.650;10.720;2022-12-29T15:56:01;6.70;99.90
3007;DHT22;1513;47.650;10.720;2022-12-29T15:58:49;6.70;99.90
3007;DHT22;1513;47.650;10.720;2022-12-29T16:01:34;6.70;99.90
3007;DHT22;1513;47.650;10.720;2022-12-29T16:04:08;6.70;99.90
3007;DHT22;1513;47.650;10.720;2022-12-29T16:06:37;6.70;99.90
3007;DHT22;1513;47.650;10.720;2022-12-29T16:09:15;6.80;99.90
3007;DHT22;1513;47.650;10.720;2022-12-29T16:11:51;7.00;99.90
3007;DHT22;1513;47.650;10.720;2022-12-29T16:14:21;7.50;99.90
3007;DHT22;1513;47.650;10.720;2022-12-29T16:16:57;7.50;99.90
3007;DHT22;1513;47.650;10.720;2022-12-29T16:19:28;7.70;99.80
3007;DHT22;1513;47.650;10.720;2022-12-29T16:21:56;7.70;99.90
3007;DHT22;1513;47.650;10.720;2022-12-29T16:24:26;7.50;99.90
3007;DHT22;1513;47.650;10.720;2022-12-29T16:27:07;7.50;99.90
3007;DHT22;1513;47.650;10.720;2022-12-29T16:29:35;7.60;99.80
3007;DHT22;1513;47.650;10.720;2022-12-29T16:32:02;7.60;99.90
3007;DHT22;1513;47.650;10.720;2022-12-29T16:35:11;7.30;99.90
3007;DHT22;1513;47.650;10.720;2022-12-29T16:37:45;7.10;99.90
3007;DHT22;1513;47.650;10.720;2022-12-29T16:48:18;6.20;99.90
3007;DHT22;1513;47.650;10.720;2022-12-29T16:50:46;6.10;99.90
3007;DHT22;1513;47.650;10.720;2022-12-29T16:53:28;6.10;99.90
3007;DHT22;1513;47.650;10.720;2022-12-29T16:56:02;6.00;99.90
3007;DHT22;1513;47.650;10.720;2022-12-29T16:58:31;6.00;99.90
3007;DHT22;1513;47.650;10.720;2022-12-29T17:01:00;5.90;99.90
3007;DHT22;1513;47.650;10.720;2022-12-29T17:03:41;5.90;99.90
3007;DHT22;1513;47.650;10.720;2022-12-29T17:06:18;5.90;99.90
3007;DHT22;1513;47.650;10.720;2022-12-29T17:08:45;6.00;99.90
3007;DHT22;1513;47.650;10.720;2022-12-29T17:11:27;6.00;99.90
3007;DHT22;1513;47.650;10.720;2022-12-29T17:14:35;6.00;99.90
3007;DHT22;1513;47.650;10.720;2022-12-29T17:22:45;6.00;99.90
3007;DHT22;1513;47.650;10.720;2022-12-29T17:25:32;5.90;99.90
3007;DHT22;1513;47.650;10.720;2022-12-29T17:30:49;5.90;99.90
3007;DHT22;1513;47.650;10.720;2022-12-29T17:33:23;6.00;99.90
3007;DHT22;1513;47.650;10.720;2022-12-29T17:35:48;6.00;99.90
3007;DHT22;1513;47.650;10.720;2022-12-29T17:38:20;5.80;99.90
3007;DHT22;1513;47.650;10.720;2022-12-29T17:40:49;5.60;99.90
3007;DHT22;1513;47.650;10.720;2022-12-29T17:43:16;5.60;99.90
3007;DHT22;1513;47.650;10.720;2022-12-29T17:45:43;5.60;99.90
3007;DHT22;1513;47.650;10.720;2022-12-29T17:48:14;5.50;99.90
3007;DHT22;1513;47.650;10.720;2022-12-29T17:50:42;5.50;99.90
3007;DHT22;1513;47.650;10.720;2022-12-29T17:53:23;5.60;99.90
3007;DHT22;1513;47.650;10.720;2022-12-29T17:55:51;5.60;99.90
3007;DHT22;1513;47.650;10.720;2022-12-29T17:58:22;5.80;99.90
3007;DHT22;1513;47.650;10.720;2022-12-29T18:00:53;5.80;99.90
3007;DHT22;1513;47.650;10.720;2022-12-29T18:03:33;5.80;99.90
3007;DHT22;1513;47.650;10.720;2022-12-29T18:06:03;5.70;99.90
3007;DHT22;1513;47.650;10.720;2022-12-29T18:08:38;5.50;99.90
3007;DHT22;1513;47.650;10.720;2022-12-29T18:11:20;5.40;99.90
3007;DHT22;1513;47.650;10.720;2022-12-29T18:13:47;5.30;99.90
3007;DHT22;1513;47.650;10.720;2022-12-29T18:16:13;5.10;99.90
3007;DHT22;1513;47.650;10.720;2022-12-29T18:18:39;5.10;99.90
3007;DHT22;1513;47.650;10.720;2022-12-29T18:21:05;5.00;99.90
3007;DHT22;1513;47.650;10.720;2022-12-29T18:24:01;5.00;99.90
3007;DHT22;1513;47.650;10.720;2022-12-29T18:26:28;4.90;99.90
3007;DHT22;1513;47.650;10.720;2022-12-29T18:28:57;5.00;99.90
3007;DHT22;1513;47.650;10.720;2022-12-29T18:31:29;5.20;99.90
3007;DHT22;1513;47.650;10.720;2022-12-29T18:33:58;5.20;99.90
3007;DHT22;1513;47.650;10.720;2022-12-29T18:36:26;5.10;99.90
3007;DHT22;1513;47.650;10.720;2022-12-29T18:38:53;5.00;99.90
3007;DHT22;1513;47.650;10.720;2022-12-29T18:41:21;5.00;99.90
3007;DHT22;1513;47.650;10.720;2022-12-29T18:43:49;5.10;99.90
3007;DHT22;1513;47.650;10.720;2022-12-29T18:46:15;5.10;99.90
3007;DHT22;1513;47.650;10.720;2022-12-29T18:48:41;5.10;99.90
3007;DHT22;1513;47.650;10.720;2022-12-29T18:51:17;5.10;99.90
3007;DHT22;1513;47.650;10.720;2022-12-29T18:53:44;5.10;99.90
3007;DHT22;1513;47.650;10.720;2022-12-29T18:56:10;5.00;99.90
3007;DHT22;1513;47.650;10.720;2022-12-29T18:58:37;5.00;99.90
3007;DHT22;1513;47.650;10.720;2022-12-29T19:01:04;5.00;99.90
3007;DHT22;1513;47.650;10.720;2022-12-29T19:03:30;5.00;99.90
3007;DHT22;1513;47.650;10.720;2022-12-29T19:05:56;5.00;99.90
3007;DHT22;1513;47.650;10.720;2022-12-29T19:08:22;5.00;99.90
3007;DHT22;1513;47.650;10.720;2022-12-29T19:10:49;4.90;99.90
3007;DHT22;1513;47.650;10.720;2022-12-29T19:13:18;4.90;99.90
3007;DHT22;1513;47.650;10.720;2022-12-29T19:15:45;4.90;99.90
3007;DHT22;1513;47.650;10.720;2022-12-29T19:18:17;4.90;99.90
3007;DHT22;1513;47.650;10.720;2022-12-29T19:20:46;4.80;99.90
3007;DHT22;1513;47.650;10.720;2022-12-29T19:23:16;4.90;99.90
3007;DHT22;1513;47.650;10.720;2022-12-29T19:25:44;5.10;99.90
3007;DHT22;1513;47.650;10.720;2022-12-29T19:28:24;5.30;99.90
3007;DHT22;1513;47.650;10.720;2022-12-29T19:30:54;5.40;99.90
3007;DHT22;1513;47.650;10.720;2022-12-29T19:33:23;5.40;99.90
3007;DHT22;1513;47.650;10.720;2022-12-29T19:35:50;5.50;99.90